YJN weather

St Jean Airport
St Jean, Quebec, Canada

Public forecast

Using degrees Celsius for public forecast. Weather courtesy of forecast.io.

METAR (pilot weather report)

Closest report is MontrĂ©al / Saint-Hubert Airport, 14.6 nm (27.0 km) NNW. Retrieved 2019/05/22 06:00 UTC (5 minutes ago):

CYHU 220600Z AUTO 34008KT 9SM CLR 09/04 A3011 RMK SLP199

TAF (pilot weather forecast)

Closest forecast is MontrĂ©al / Saint-Hubert Airport, 14.6 nm (27.0 km) NNW. Retrieved 2019/05/22 06:42 UTC (0 seconds ago):

TAF CYHU 220538Z 2206/2306 34012KT P6SM SKC FM220800 35008KT P6SM SKC FM222000 24006KT P6SM FEW040 SCT230 FM230000 17006KT P6SM BKN170 RMK FCST BASED ON AUTO OBS. NXT FCST BY 221200Z